createdAt,value
2018-03-06T00:00:22.509Z,7.6
2018-03-06T00:00:48.622Z,7.61
2018-03-06T00:01:14.722Z,7.66
2018-03-06T00:01:40.818Z,7.69
2018-03-06T00:02:06.923Z,7.69
2018-03-06T00:02:33.021Z,7.72
2018-03-06T00:02:59.125Z,7.7
2018-03-06T00:03:25.226Z,7.72
2018-03-06T00:03:51.326Z,7.69
2018-03-06T00:04:17.426Z,7.69
2018-03-06T00:04:43.531Z,7.67
2018-03-06T00:05:09.632Z,7.73
2018-03-06T00:05:35.728Z,7.7
2018-03-06T00:06:01.826Z,7.83
2018-03-06T00:06:27.929Z,7.79
2018-03-06T00:06:54.022Z,7.79
2018-03-06T00:07:20.141Z,7.76
2018-03-06T00:07:46.254Z,7.77
2018-03-06T00:08:12.356Z,7.75
2018-03-06T00:08:38.480Z,7.75
2018-03-06T00:09:04.579Z,7.72
2018-03-06T00:09:30.696Z,7.7
2018-03-06T00:09:56.797Z,7.66
2018-03-06T00:10:22.892Z,7.63
2018-03-06T00:10:48.997Z,7.57
2018-03-06T00:11:15.100Z,7.61
2018-03-06T00:11:41.197Z,7.6
2018-03-06T00:12:07.297Z,7.66
2018-03-06T00:12:33.401Z,7.53
2018-03-06T00:12:59.504Z,7.5
2018-03-06T00:13:25.600Z,7.56
2018-03-06T00:13:51.699Z,7.51
2018-03-06T00:14:17.805Z,7.43
2018-03-06T00:14:43.901Z,7.4
2018-03-06T00:15:10.004Z,7.42
2018-03-06T00:15:36.101Z,7.29
2018-03-06T00:16:02.204Z,7.45
2018-03-06T00:16:28.311Z,7.25
2018-03-06T00:16:54.445Z,7.28
2018-03-06T00:17:20.516Z,7.24
2018-03-06T00:17:46.636Z,7.25
2018-03-06T00:18:12.739Z,7.32
2018-03-06T00:18:38.834Z,7.31
2018-03-06T00:19:04.941Z,7.18
2018-03-06T00:19:31.041Z,7.21
2018-03-06T00:19:57.139Z,7.21
2018-03-06T00:20:23.315Z,7.15
2018-03-06T00:20:49.363Z,7.14
2018-03-06T00:21:15.519Z,7.1
2018-03-06T00:21:41.564Z,7.07
2018-03-06T00:22:07.670Z,7.14
2018-03-06T00:22:33.797Z,7.14
2018-03-06T00:22:59.895Z,7
2018-03-06T00:23:26.013Z,7.1
2018-03-06T00:23:52.112Z,7.06
2018-03-06T00:24:18.220Z,7.17
2018-03-06T00:24:44.318Z,7.2
2018-03-06T00:25:10.436Z,7.21
2018-03-06T00:25:36.539Z,7.2
2018-03-06T00:26:02.638Z,7.28
2018-03-06T00:26:28.756Z,7.31
2018-03-06T00:26:54.842Z,7.28
2018-03-06T00:27:20.963Z,7.38
2018-03-06T00:27:47.071Z,7.47
2018-03-06T00:28:13.175Z,7.43
2018-03-06T00:28:39.277Z,7.48
2018-03-06T00:29:05.383Z,7.38
2018-03-06T00:29:31.479Z,7.28
2018-03-06T00:29:57.580Z,7.25
2018-03-06T00:30:23.679Z,7.14
2018-03-06T00:30:49.782Z,7.13
2018-03-06T00:31:15.876Z,7.18
2018-03-06T00:31:41.981Z,7.07
2018-03-06T00:32:08.092Z,6.96
2018-03-06T00:32:34.188Z,6.97
2018-03-06T00:33:00.294Z,6.93
2018-03-06T00:33:26.388Z,6.96
2018-03-06T00:33:52.487Z,6.95
2018-03-06T00:34:18.593Z,6.79
2018-03-06T00:34:44.690Z,6.81
2018-03-06T00:35:10.794Z,6.84
2018-03-06T00:35:36.895Z,6.85
2018-03-06T00:36:02.989Z,6.88
2018-03-06T00:36:29.090Z,6.82
2018-03-06T00:36:55.192Z,6.84
2018-03-06T00:37:21.289Z,6.84
2018-03-06T00:37:47.392Z,6.77
2018-03-06T00:38:13.497Z,6.78
2018-03-06T00:38:39.593Z,6.77
2018-03-06T00:39:05.710Z,6.82
2018-03-06T00:39:31.810Z,6.82
2018-03-06T00:39:57.906Z,6.82
2018-03-06T00:40:24.023Z,6.78
2018-03-06T00:40:50.132Z,6.7
2018-03-06T00:41:16.227Z,6.84
2018-03-06T00:41:42.325Z,6.77
2018-03-06T00:42:08.429Z,6.78
2018-03-06T00:42:34.527Z,6.81
2018-03-06T00:43:00.632Z,6.77
2018-03-06T00:43:26.732Z,6.82
2018-03-06T00:43:52.830Z,6.7
2018-03-06T00:44:18.936Z,6.72
2018-03-06T00:44:45.027Z,6.74
2018-03-06T00:45:11.124Z,6.78
2018-03-06T00:45:37.228Z,6.82
2018-03-06T00:46:03.333Z,6.87
2018-03-06T00:46:29.435Z,6.89
2018-03-06T00:46:55.537Z,6.87
2018-03-06T00:47:21.651Z,6.88
2018-03-06T00:47:47.745Z,6.79
2018-03-06T00:48:13.851Z,6.75
2018-03-06T00:48:39.948Z,6.84
2018-03-06T00:49:06.050Z,6.82
2018-03-06T00:49:32.150Z,6.92
2018-03-06T00:49:58.249Z,6.97
2018-03-06T00:50:24.396Z,6.95
2018-03-06T00:50:50.445Z,6.99
2018-03-06T00:51:16.559Z,6.92
2018-03-06T00:51:42.660Z,6.99
2018-03-06T00:52:08.764Z,6.88
2018-03-06T00:52:34.861Z,6.89
2018-03-06T00:53:00.962Z,6.92
2018-03-06T00:53:27.071Z,6.81
2018-03-06T00:53:53.182Z,6.78
2018-03-06T00:54:19.289Z,6.88
2018-03-06T00:54:45.404Z,6.88
2018-03-06T00:55:11.498Z,6.78
2018-03-06T00:55:37.612Z,6.84
2018-03-06T00:56:03.713Z,6.88
2018-03-06T00:56:29.813Z,6.75
2018-03-06T00:56:55.908Z,6.79
2018-03-06T00:57:22.010Z,6.77
2018-03-06T00:57:48.112Z,6.74
2018-03-06T00:58:14.232Z,6.7
2018-03-06T00:58:40.334Z,6.7
2018-03-06T00:59:06.429Z,6.54
2018-03-06T00:59:32.534Z,6.66
2018-03-06T00:59:58.659Z,6.77
2018-03-06T01:00:24.757Z,6.75
2018-03-06T01:00:50.854Z,6.7
2018-03-06T01:01:16.959Z,6.57
2018-03-06T01:01:43.059Z,6.59
2018-03-06T01:02:09.170Z,6.56
2018-03-06T01:02:35.276Z,6.62
2018-03-06T01:03:01.372Z,6.6
2018-03-06T01:03:27.476Z,6.46
2018-03-06T01:03:53.573Z,6.51
2018-03-06T01:04:19.684Z,6.46
2018-03-06T01:04:45.786Z,6.46
2018-03-06T01:05:11.890Z,6.41
2018-03-06T01:05:37.989Z,6.41
2018-03-06T01:06:04.083Z,6.36
2018-03-06T01:06:30.188Z,6.33
2018-03-06T01:06:56.292Z,6.28
2018-03-06T01:07:22.392Z,6.3
2018-03-06T01:07:48.490Z,6.22
2018-03-06T01:08:14.594Z,6.22
2018-03-06T01:08:40.698Z,6.16
2018-03-06T01:09:06.818Z,6.27
2018-03-06T01:09:32.914Z,6.26
2018-03-06T01:09:59.025Z,6.27
2018-03-06T01:10:25.131Z,6.38
2018-03-06T01:10:51.230Z,6.39
2018-03-06T01:11:17.327Z,6.42
2018-03-06T01:11:43.426Z,6.46
2018-03-06T01:12:09.526Z,6.51
2018-03-06T01:12:35.634Z,6.6
2018-03-06T01:13:01.730Z,6.59
2018-03-06T01:13:27.835Z,6.6
2018-03-06T01:13:53.928Z,6.56
2018-03-06T01:14:20.030Z,6.56
2018-03-06T01:14:46.128Z,6.7
2018-03-06T01:15:12.249Z,6.72
2018-03-06T01:15:38.351Z,6.7
2018-03-06T01:16:04.449Z,6.75
2018-03-06T01:16:30.551Z,6.69
2018-03-06T01:16:56.647Z,6.7
2018-03-06T01:17:22.757Z,6.72
2018-03-06T01:17:48.864Z,6.72
2018-03-06T01:18:14.977Z,6.72
2018-03-06T01:18:41.082Z,6.7
2018-03-06T01:19:07.184Z,6.7
2018-03-06T01:19:33.299Z,6.75
2018-03-06T01:19:59.398Z,6.67
2018-03-06T01:20:25.546Z,6.72
2018-03-06T01:20:51.597Z,6.67
2018-03-06T01:21:17.718Z,6.57
2018-03-06T01:21:43.816Z,6.63
2018-03-06T01:22:09.918Z,6.74
2018-03-06T01:22:36.019Z,6.6
2018-03-06T01:23:02.124Z,6.56
2018-03-06T01:23:28.220Z,6.49
2018-03-06T01:23:54.324Z,6.57
2018-03-06T01:24:20.421Z,6.52
2018-03-06T01:24:46.522Z,6.51
2018-03-06T01:25:12.622Z,6.44
2018-03-06T01:25:38.725Z,6.39
2018-03-06T01:26:04.824Z,6.41
2018-03-06T01:26:30.935Z,6.46
2018-03-06T01:26:57.045Z,6.36
2018-03-06T01:27:23.149Z,6.38
2018-03-06T01:27:49.248Z,6.42
2018-03-06T01:28:15.359Z,6.41
2018-03-06T01:28:41.457Z,6.46
2018-03-06T01:29:07.555Z,6.41
2018-03-06T01:29:33.665Z,6.36
2018-03-06T01:29:59.759Z,6.38
2018-03-06T01:30:25.863Z,6.31
2018-03-06T01:30:51.962Z,6.26
2018-03-06T01:31:18.077Z,6.26
2018-03-06T01:31:44.178Z,6.31
2018-03-06T01:32:10.279Z,6.31
2018-03-06T01:32:36.380Z,6.35
2018-03-06T01:33:02.476Z,6.39
2018-03-06T01:33:28.575Z,6.38
2018-03-06T01:33:54.676Z,6.39
2018-03-06T01:34:20.773Z,6.35
2018-03-06T01:34:46.879Z,6.44
2018-03-06T01:35:12.971Z,6.49
2018-03-06T01:35:39.075Z,6.33
2018-03-06T01:36:05.176Z,6.46
2018-03-06T01:36:31.274Z,6.3
2018-03-06T01:36:57.380Z,6.31
2018-03-06T01:37:23.481Z,6.39
2018-03-06T01:37:49.581Z,6.35
2018-03-06T01:38:15.696Z,6.42
2018-03-06T01:38:41.798Z,6.36
2018-03-06T01:39:07.892Z,6.33
2018-03-06T01:39:34.008Z,6.45
2018-03-06T01:40:00.110Z,6.41
2018-03-06T01:40:26.207Z,6.35
2018-03-06T01:40:52.322Z,6.35
2018-03-06T01:41:18.418Z,6.33
2018-03-06T01:41:44.517Z,6.22
2018-03-06T01:42:10.617Z,6.24
2018-03-06T01:42:36.716Z,6.19
2018-03-06T01:43:02.819Z,6.26
2018-03-06T01:43:28.930Z,6.27
2018-03-06T01:43:55.023Z,6.26
2018-03-06T01:44:21.120Z,6.27
2018-03-06T01:44:47.225Z,6.35
2018-03-06T01:45:13.320Z,6.3
2018-03-06T01:45:39.423Z,6.22
2018-03-06T01:46:05.521Z,6.28
2018-03-06T01:46:31.622Z,6.19
2018-03-06T01:46:57.729Z,6.2
2018-03-06T01:47:23.821Z,6.16
2018-03-06T01:47:49.923Z,6.17
2018-03-06T01:48:16.023Z,6.22
2018-03-06T01:48:42.124Z,6.2
2018-03-06T01:49:08.228Z,6.2
2018-03-06T01:49:34.356Z,6.19
2018-03-06T01:50:00.439Z,6.05
2018-03-06T01:50:26.540Z,6.09
2018-03-06T01:50:52.649Z,6.12
2018-03-06T01:51:18.748Z,6.05
2018-03-06T01:51:44.855Z,6.08
2018-03-06T01:52:10.951Z,6.08
2018-03-06T01:52:37.049Z,6.08
2018-03-06T01:53:03.149Z,6.09
2018-03-06T01:53:29.251Z,6.07
2018-03-06T01:53:55.347Z,6.08
2018-03-06T01:54:21.450Z,6.08
2018-03-06T01:54:47.547Z,6.08
2018-03-06T01:55:13.647Z,6.05
2018-03-06T01:55:39.772Z,6.01
2018-03-06T01:56:05.873Z,6.16
2018-03-06T01:56:31.997Z,6.14
2018-03-06T01:56:58.099Z,6.2
2018-03-06T01:57:24.216Z,6.16
2018-03-06T01:57:50.317Z,6.14
2018-03-06T01:58:16.413Z,6.3
2018-03-06T01:58:42.518Z,6.12
2018-03-06T01:59:08.629Z,6.27
2018-03-06T01:59:34.730Z,6.31
2018-03-06T02:00:00.851Z,6.2
2018-03-06T02:00:26.944Z,6.19
2018-03-06T02:00:53.047Z,6.26
2018-03-06T02:01:19.144Z,6.27
2018-03-06T02:01:45.242Z,6.26
2018-03-06T02:02:11.345Z,6.28
2018-03-06T02:02:37.446Z,6.2
2018-03-06T02:03:03.542Z,6.24
2018-03-06T02:03:29.639Z,6.27
2018-03-06T02:03:55.745Z,6.31
2018-03-06T02:04:21.846Z,6.3
2018-03-06T02:04:47.946Z,6.27
2018-03-06T02:05:14.040Z,6.27
2018-03-06T02:05:40.143Z,6.3
2018-03-06T02:06:06.245Z,6.24
2018-03-06T02:06:32.341Z,6.2
2018-03-06T02:06:58.458Z,6.14
2018-03-06T02:07:24.559Z,6.11
2018-03-06T02:07:50.658Z,6.02
2018-03-06T02:08:16.759Z,6.01
2018-03-06T02:08:42.862Z,5.98
2018-03-06T02:09:08.964Z,5.94
2018-03-06T02:09:35.067Z,5.87
2018-03-06T02:10:01.167Z,5.89
2018-03-06T02:10:27.281Z,5.99
2018-03-06T02:10:53.384Z,5.98
2018-03-06T02:11:19.501Z,6.01
2018-03-06T02:11:45.594Z,6.02
2018-03-06T02:12:11.693Z,6.07
2018-03-06T02:12:37.795Z,6.19
2018-03-06T02:13:03.916Z,6.28
2018-03-06T02:13:30.046Z,6.28
2018-03-06T02:13:56.147Z,6.14
2018-03-06T02:14:22.311Z,6.14
2018-03-06T02:14:48.417Z,6.31
2018-03-06T02:15:14.516Z,6.2
2018-03-06T02:15:40.620Z,6.35
2018-03-06T02:16:06.723Z,6.35
2018-03-06T02:16:32.823Z,6.27
2018-03-06T02:16:58.918Z,6.35
2018-03-06T02:17:25.018Z,6.28
2018-03-06T02:17:51.120Z,6.26
2018-03-06T02:18:17.214Z,6.31
2018-03-06T02:18:43.317Z,6.33
2018-03-06T02:19:09.419Z,6.3
2018-03-06T02:19:35.514Z,6.48
2018-03-06T02:20:01.625Z,6.36
2018-03-06T02:20:27.717Z,6.3
2018-03-06T02:20:53.840Z,6.31
2018-03-06T02:21:19.943Z,6.27
2018-03-06T02:21:46.042Z,6.24
2018-03-06T02:22:12.148Z,6.19
2018-03-06T02:22:38.244Z,6.12
2018-03-06T02:23:04.348Z,6.17
2018-03-06T02:23:30.453Z,6.2
2018-03-06T02:23:56.554Z,6.24
2018-03-06T02:24:22.645Z,6.19
2018-03-06T02:24:48.749Z,6.19
2018-03-06T02:25:14.849Z,6.2
2018-03-06T02:25:40.947Z,6.17
2018-03-06T02:26:07.055Z,6.2
2018-03-06T02:26:33.158Z,6.11
2018-03-06T02:26:59.272Z,6.12
2018-03-06T02:27:25.384Z,6.08
2018-03-06T02:27:51.481Z,6.05
2018-03-06T02:28:17.586Z,6.04
2018-03-06T02:28:43.688Z,5.89
2018-03-06T02:29:09.784Z,5.93
2018-03-06T02:29:35.886Z,6.01
2018-03-06T02:30:01.984Z,5.99
2018-03-06T02:30:28.083Z,5.98
2018-03-06T02:30:54.182Z,6.01
2018-03-06T02:31:20.287Z,6.02
2018-03-06T02:31:46.384Z,6.05
2018-03-06T02:32:12.487Z,6.02
2018-03-06T02:32:38.591Z,6.01
2018-03-06T02:33:04.686Z,6.07
2018-03-06T02:33:30.785Z,6.02
2018-03-06T02:33:56.883Z,6.05
2018-03-06T02:34:23.002Z,6.01
2018-03-06T02:34:49.101Z,5.93
2018-03-06T02:35:15.202Z,5.87
2018-03-06T02:35:41.301Z,5.84
2018-03-06T02:36:07.397Z,5.94
2018-03-06T02:36:33.503Z,5.93
2018-03-06T02:36:59.595Z,5.94
2018-03-06T02:37:25.717Z,5.91
2018-03-06T02:37:51.814Z,5.89
2018-03-06T02:38:17.919Z,5.89
2018-03-06T02:38:44.035Z,5.93
2018-03-06T02:39:10.127Z,5.83
2018-03-06T02:39:36.229Z,5.89
2018-03-06T02:40:02.330Z,5.76
2018-03-06T02:40:28.439Z,5.79
2018-03-06T02:40:54.542Z,5.79
2018-03-06T02:41:20.636Z,5.83
2018-03-06T02:41:46.732Z,5.99
2018-03-06T02:42:12.835Z,5.93
2018-03-06T02:42:38.941Z,5.84
2018-03-06T02:43:05.036Z,5.93
2018-03-06T02:43:31.136Z,5.9
2018-03-06T02:43:57.239Z,5.76
2018-03-06T02:44:23.336Z,5.79
2018-03-06T02:44:49.437Z,5.71
2018-03-06T02:45:15.539Z,5.68
2018-03-06T02:45:41.642Z,5.68
2018-03-06T02:46:07.738Z,5.64
2018-03-06T02:46:33.843Z,5.61
2018-03-06T02:46:59.938Z,5.68
2018-03-06T02:47:26.035Z,5.66
2018-03-06T02:47:52.137Z,5.68
2018-03-06T02:48:18.242Z,5.66
2018-03-06T02:48:44.338Z,5.66
2018-03-06T02:49:10.434Z,5.82
2018-03-06T02:49:36.534Z,5.89
2018-03-06T02:50:02.636Z,5.9
2018-03-06T02:50:28.733Z,5.87
2018-03-06T02:50:54.839Z,5.98
2018-03-06T02:51:20.941Z,5.98
2018-03-06T02:51:47.041Z,6.04
2018-03-06T02:52:13.146Z,6.04
2018-03-06T02:52:39.236Z,6.11
2018-03-06T02:53:05.334Z,6.12
2018-03-06T02:53:31.438Z,6.14
2018-03-06T02:53:57.552Z,6.17
2018-03-06T02:54:23.650Z,6.12
2018-03-06T02:54:49.756Z,6.11
2018-03-06T02:55:15.852Z,6.16
2018-03-06T02:55:41.995Z,6.2
2018-03-06T02:56:08.053Z,6.28
2018-03-06T02:56:34.159Z,6.31
2018-03-06T02:57:00.254Z,6.3
2018-03-06T02:57:26.361Z,6.22
2018-03-06T02:57:52.463Z,6.22
2018-03-06T02:58:18.561Z,6.14
2018-03-06T02:58:44.665Z,6.11
2018-03-06T02:59:10.781Z,6.07
2018-03-06T02:59:36.875Z,6.14
2018-03-06T03:00:02.981Z,5.98
2018-03-06T03:00:29.076Z,6.05
2018-03-06T03:00:55.174Z,6.01
2018-03-06T03:01:21.277Z,6.04
2018-03-06T03:01:47.409Z,6.01
2018-03-06T03:02:13.474Z,5.9
2018-03-06T03:02:39.581Z,5.89
2018-03-06T03:03:05.678Z,5.93
2018-03-06T03:03:31.777Z,5.97
2018-03-06T03:03:57.880Z,5.93
2018-03-06T03:04:23.975Z,5.83
2018-03-06T03:04:50.078Z,5.83
2018-03-06T03:05:16.173Z,5.75
2018-03-06T03:05:42.277Z,5.75
2018-03-06T03:06:08.380Z,5.82
2018-03-06T03:06:34.479Z,5.83
2018-03-06T03:07:00.574Z,5.84
2018-03-06T03:07:26.699Z,5.9
2018-03-06T03:07:52.793Z,5.9
2018-03-06T03:08:18.897Z,5.99
2018-03-06T03:08:44.997Z,5.94
2018-03-06T03:09:11.096Z,5.98
2018-03-06T03:09:37.195Z,5.98
2018-03-06T03:10:03.321Z,6.05
2018-03-06T03:10:29.429Z,5.98
2018-03-06T03:10:55.526Z,5.97
2018-03-06T03:11:21.622Z,5.9
2018-03-06T03:11:47.719Z,5.82
2018-03-06T03:12:13.825Z,5.83
2018-03-06T03:12:39.928Z,5.8
2018-03-06T03:13:06.024Z,5.79
2018-03-06T03:13:32.124Z,5.76
2018-03-06T03:13:58.226Z,5.79
2018-03-06T03:14:24.323Z,5.68
2018-03-06T03:14:50.425Z,5.69
2018-03-06T03:15:16.521Z,5.66
2018-03-06T03:15:42.643Z,5.65
2018-03-06T03:16:08.743Z,5.64
2018-03-06T03:16:34.855Z,5.71
2018-03-06T03:17:00.960Z,5.66
2018-03-06T03:17:27.054Z,5.82
2018-03-06T03:17:53.154Z,5.75
2018-03-06T03:18:19.257Z,5.71
2018-03-06T03:18:45.355Z,5.66
2018-03-06T03:19:11.468Z,5.73
2018-03-06T03:19:37.568Z,5.62
2018-03-06T03:20:03.665Z,5.51
2018-03-06T03:20:29.768Z,5.47
2018-03-06T03:20:55.874Z,5.48
2018-03-06T03:21:21.970Z,5.35
2018-03-06T03:21:48.085Z,5.41
2018-03-06T03:22:14.182Z,5.39
2018-03-06T03:22:40.277Z,5.33
2018-03-06T03:23:06.377Z,5.36
2018-03-06T03:23:32.483Z,5.28
2018-03-06T03:23:58.576Z,5.33
2018-03-06T03:24:24.671Z,5.29
2018-03-06T03:24:50.779Z,5.25
2018-03-06T03:25:16.874Z,5.26
2018-03-06T03:25:42.979Z,5.3
2018-03-06T03:26:09.079Z,5.25
2018-03-06T03:26:35.177Z,5.25
2018-03-06T03:27:01.280Z,5.23
2018-03-06T03:27:27.377Z,5.18
2018-03-06T03:27:53.473Z,5.15
2018-03-06T03:28:19.578Z,5.17
2018-03-06T03:28:45.673Z,5.07
2018-03-06T03:29:11.775Z,5.17
2018-03-06T03:29:37.878Z,5.08
2018-03-06T03:30:03.979Z,5.12
2018-03-06T03:30:30.081Z,5.1
2018-03-06T03:30:56.174Z,5.08
2018-03-06T03:31:22.271Z,5
2018-03-06T03:31:48.372Z,5.08
2018-03-06T03:32:14.468Z,5.04
2018-03-06T03:32:40.569Z,5
2018-03-06T03:33:06.675Z,5.04
2018-03-06T03:33:32.769Z,5.04
2018-03-06T03:33:58.866Z,5.04
2018-03-06T03:34:24.987Z,5.04
2018-03-06T03:34:51.086Z,5.02
2018-03-06T03:35:17.196Z,5.02
2018-03-06T03:35:43.289Z,5.08
2018-03-06T03:36:09.392Z,5.04
2018-03-06T03:36:35.488Z,5.11
2018-03-06T03:37:01.586Z,5.05
2018-03-06T03:37:27.691Z,5.11
2018-03-06T03:37:53.794Z,5.1
2018-03-06T03:38:19.886Z,5.12
2018-03-06T03:38:45.991Z,5.11
2018-03-06T03:39:12.092Z,5
2018-03-06T03:39:38.190Z,5.18
2018-03-06T03:40:04.291Z,5.1
2018-03-06T03:40:30.384Z,5.07
2018-03-06T03:40:56.487Z,5.11
2018-03-06T03:41:22.586Z,5.1
2018-03-06T03:41:48.682Z,5.05
2018-03-06T03:42:14.788Z,5.12
2018-03-06T03:42:40.884Z,5.08
2018-03-06T03:43:06.988Z,5.02
2018-03-06T03:43:33.099Z,5.05
2018-03-06T03:43:59.203Z,5.05
2018-03-06T03:44:25.302Z,4.97
2018-03-06T03:44:51.398Z,5.04
2018-03-06T03:45:17.498Z,4.99
2018-03-06T03:45:43.593Z,4.9
2018-03-06T03:46:09.698Z,4.9
2018-03-06T03:46:35.795Z,4.86
2018-03-06T03:47:01.910Z,4.92
2018-03-06T03:47:28.023Z,4.9
2018-03-06T03:47:54.117Z,4.93
2018-03-06T03:48:20.220Z,4.84
2018-03-06T03:48:46.319Z,4.77
2018-03-06T03:49:12.427Z,4.8
2018-03-06T03:49:38.538Z,4.77
2018-03-06T03:50:04.645Z,4.82
2018-03-06T03:50:30.744Z,4.77
2018-03-06T03:50:56.845Z,4.77
2018-03-06T03:51:22.953Z,4.78
2018-03-06T03:51:49.039Z,4.74
2018-03-06T03:52:15.148Z,4.71
2018-03-06T03:52:41.239Z,4.75
2018-03-06T03:53:07.337Z,4.73
2018-03-06T03:53:33.430Z,4.66
2018-03-06T03:53:59.529Z,4.74
2018-03-06T03:54:25.637Z,4.73
2018-03-06T03:54:51.737Z,4.78
2018-03-06T03:55:17.838Z,4.74
2018-03-06T03:55:43.943Z,4.82
2018-03-06T03:56:10.044Z,4.75
2018-03-06T03:56:36.140Z,4.84
2018-03-06T03:57:02.238Z,4.93
2018-03-06T03:57:28.338Z,4.92
2018-03-06T03:57:54.471Z,4.96
2018-03-06T03:58:20.570Z,5.02
2018-03-06T03:58:46.668Z,4.92
2018-03-06T03:59:12.770Z,4.93
2018-03-06T03:59:38.873Z,4.84
2018-03-06T04:00:04.975Z,4.87
2018-03-06T04:00:31.065Z,4.75
2018-03-06T04:00:57.168Z,4.84
2018-03-06T04:01:23.268Z,4.82
2018-03-06T04:01:49.368Z,4.84
2018-03-06T04:02:15.476Z,4.77
2018-03-06T04:02:41.570Z,4.77
2018-03-06T04:03:07.674Z,4.82
2018-03-06T04:03:33.771Z,4.74
2018-03-06T04:03:59.873Z,4.75
2018-03-06T04:04:25.973Z,4.68
2018-03-06T04:04:52.076Z,4.71
2018-03-06T04:05:18.177Z,4.67
2018-03-06T04:05:44.272Z,4.67
2018-03-06T04:06:10.370Z,4.67
2018-03-06T04:06:36.477Z,4.62
2018-03-06T04:07:02.580Z,4.6
2018-03-06T04:07:28.675Z,4.62
2018-03-06T04:07:54.779Z,4.68
2018-03-06T04:08:20.874Z,4.68
2018-03-06T04:08:46.973Z,4.67
2018-03-06T04:09:13.078Z,4.8
2018-03-06T04:09:39.173Z,4.78
2018-03-06T04:10:05.276Z,4.77
2018-03-06T04:10:31.386Z,4.86
2018-03-06T04:10:57.482Z,4.99
2018-03-06T04:11:23.582Z,4.87
2018-03-06T04:11:49.684Z,4.9
2018-03-06T04:12:15.780Z,5.02
2018-03-06T04:12:41.898Z,5.08
2018-03-06T04:13:08.005Z,5.11
2018-03-06T04:13:34.101Z,5.08
2018-03-06T04:14:00.198Z,5.07
2018-03-06T04:14:26.294Z,5.15
2018-03-06T04:14:52.401Z,5.11
2018-03-06T04:15:18.497Z,5.08
2018-03-06T04:15:44.598Z,5.15
2018-03-06T04:16:10.705Z,5.1
2018-03-06T04:16:36.805Z,5.11
2018-03-06T04:17:02.898Z,5.11
2018-03-06T04:17:29.001Z,5.21
2018-03-06T04:17:55.107Z,5.17
2018-03-06T04:18:21.203Z,5.23
2018-03-06T04:18:47.308Z,5.3
2018-03-06T04:19:13.407Z,5.33
2018-03-06T04:19:39.524Z,5.46
2018-03-06T04:20:05.625Z,5.38
2018-03-06T04:20:31.718Z,5.38
2018-03-06T04:20:57.833Z,5.38
2018-03-06T04:21:23.933Z,5.56
2018-03-06T04:21:50.032Z,5.54
2018-03-06T04:22:16.139Z,5.51
2018-03-06T04:22:42.235Z,5.57
2018-03-06T04:23:08.336Z,5.56
2018-03-06T04:23:34.433Z,5.54
2018-03-06T04:24:00.535Z,5.46
2018-03-06T04:24:26.635Z,5.53
2018-03-06T04:24:52.730Z,5.53
2018-03-06T04:25:18.829Z,5.57
2018-03-06T04:25:44.933Z,5.59
2018-03-06T04:26:11.026Z,5.54
2018-03-06T04:26:37.142Z,5.54
2018-03-06T04:27:03.249Z,5.5
2018-03-06T04:27:29.346Z,5.39
2018-03-06T04:27:55.445Z,5.32
2018-03-06T04:28:21.565Z,5.39
2018-03-06T04:28:47.666Z,5.39
2018-03-06T04:29:13.764Z,5.32
2018-03-06T04:29:39.866Z,5.3
2018-03-06T04:30:05.976Z,5.26
2018-03-06T04:30:32.077Z,5.26
2018-03-06T04:30:58.175Z,5.25
2018-03-06T04:31:24.274Z,5.15
2018-03-06T04:31:50.392Z,5.15
2018-03-06T04:32:16.487Z,5.11
2018-03-06T04:32:42.589Z,5.11
2018-03-06T04:33:08.695Z,5.28
2018-03-06T04:33:34.790Z,5.21
2018-03-06T04:34:00.894Z,5.07
2018-03-06T04:34:26.992Z,5.05
2018-03-06T04:34:53.091Z,5.14
2018-03-06T04:35:19.197Z,5.12
2018-03-06T04:35:45.305Z,5.12
2018-03-06T04:36:11.427Z,5.1
2018-03-06T04:36:37.526Z,5.1
2018-03-06T04:37:03.635Z,5.05
2018-03-06T04:37:29.728Z,5.17
2018-03-06T04:37:55.848Z,5.14
2018-03-06T04:38:21.940Z,5.21
2018-03-06T04:38:48.040Z,5.15
2018-03-06T04:39:14.143Z,5.29
2018-03-06T04:39:40.263Z,5.28
2018-03-06T04:40:06.366Z,5.29
2018-03-06T04:40:32.468Z,5.36
2018-03-06T04:40:58.569Z,5.35
2018-03-06T04:41:24.667Z,5.41
2018-03-06T04:41:50.768Z,5.5
2018-03-06T04:42:16.886Z,5.53
2018-03-06T04:42:42.982Z,5.51
2018-03-06T04:43:09.086Z,5.53
2018-03-06T04:43:35.194Z,5.41
2018-03-06T04:44:01.281Z,5.38
2018-03-06T04:44:27.386Z,5.36
2018-03-06T04:44:53.482Z,5.29
2018-03-06T04:45:19.574Z,5.39
2018-03-06T04:45:45.674Z,5.43
2018-03-06T04:46:11.837Z,5.36
2018-03-06T04:46:37.917Z,5.46
2018-03-06T04:47:04.016Z,5.41
2018-03-06T04:47:30.118Z,5.56
2018-03-06T04:47:56.213Z,5.56
2018-03-06T04:48:22.332Z,5.54
2018-03-06T04:48:48.434Z,5.61
2018-03-06T04:49:14.533Z,5.71
2018-03-06T04:49:40.629Z,5.62
2018-03-06T04:50:06.733Z,5.66
2018-03-06T04:50:32.829Z,5.66
2018-03-06T04:50:58.928Z,5.64
2018-03-06T04:51:25.037Z,5.75
2018-03-06T04:51:51.134Z,5.66
2018-03-06T04:52:17.238Z,5.68
2018-03-06T04:52:43.343Z,5.69
2018-03-06T04:53:09.450Z,5.79
2018-03-06T04:53:35.563Z,5.76
2018-03-06T04:54:01.665Z,5.75
2018-03-06T04:54:27.764Z,5.75
2018-03-06T04:54:53.865Z,5.75
2018-03-06T04:55:19.980Z,5.68
2018-03-06T04:55:46.077Z,5.72
2018-03-06T04:56:12.181Z,5.66
2018-03-06T04:56:38.278Z,5.59
2018-03-06T04:57:04.379Z,5.66
2018-03-06T04:57:30.485Z,5.59
2018-03-06T04:57:56.582Z,5.56
2018-03-06T04:58:22.686Z,5.57
2018-03-06T04:58:48.786Z,5.54
2018-03-06T04:59:14.881Z,5.5
2018-03-06T04:59:40.981Z,5.38
2018-03-06T05:00:07.097Z,5.43
2018-03-06T05:00:33.202Z,5.36
2018-03-06T05:00:59.304Z,5.35
2018-03-06T05:01:25.410Z,5.33
2018-03-06T05:01:51.515Z,5.35
2018-03-06T05:02:17.619Z,5.32
2018-03-06T05:02:43.723Z,5.25
2018-03-06T05:03:09.819Z,5.33
2018-03-06T05:03:35.927Z,5.3
2018-03-06T05:04:02.020Z,5.29
2018-03-06T05:04:28.142Z,5.2
2018-03-06T05:04:54.239Z,5.15
2018-03-06T05:05:20.342Z,5.17
2018-03-06T05:05:46.444Z,5.2
2018-03-06T05:06:12.543Z,5.1
2018-03-06T05:06:38.640Z,5.11
2018-03-06T05:07:04.761Z,5.08
2018-03-06T05:07:30.861Z,5.05
2018-03-06T05:07:56.959Z,5.02
2018-03-06T05:08:23.076Z,5.04
2018-03-06T05:08:49.173Z,5.1
2018-03-06T05:09:15.271Z,5.08
2018-03-06T05:09:41.367Z,5.05
2018-03-06T05:10:07.469Z,5.12
2018-03-06T05:10:33.562Z,5.1
2018-03-06T05:10:59.699Z,5.04
2018-03-06T05:11:25.767Z,5.12
2018-03-06T05:11:51.865Z,4.96
2018-03-06T05:12:17.969Z,5.04
2018-03-06T05:12:44.067Z,5.14
2018-03-06T05:13:10.162Z,5
2018-03-06T05:13:36.268Z,5.1
2018-03-06T05:14:02.371Z,5.08
2018-03-06T05:14:28.477Z,5.12
2018-03-06T05:14:54.580Z,5.12
2018-03-06T05:15:20.678Z,5.07
2018-03-06T05:15:46.779Z,5.05
2018-03-06T05:16:12.874Z,5.12
2018-03-06T05:16:38.977Z,5.15
2018-03-06T05:17:05.071Z,5.21
2018-03-06T05:17:31.169Z,5.18
2018-03-06T05:17:57.266Z,5.18
2018-03-06T05:18:23.367Z,5.23
2018-03-06T05:18:49.473Z,5.2
2018-03-06T05:19:15.563Z,5.17
2018-03-06T05:19:41.668Z,5.17
2018-03-06T05:20:07.781Z,5.21
2018-03-06T05:20:33.887Z,5.2
2018-03-06T05:20:59.982Z,5.21
2018-03-06T05:21:26.103Z,5.26
2018-03-06T05:21:52.202Z,5.32
2018-03-06T05:22:18.311Z,5.32
2018-03-06T05:22:44.412Z,5.36
2018-03-06T05:23:10.509Z,5.41
2018-03-06T05:23:36.625Z,5.39
2018-03-06T05:24:02.732Z,5.41
2018-03-06T05:24:28.834Z,5.33
2018-03-06T05:24:54.930Z,5.5
2018-03-06T05:25:21.032Z,5.56
2018-03-06T05:25:47.125Z,5.54
2018-03-06T05:26:13.231Z,5.5
2018-03-06T05:26:39.324Z,5.36
2018-03-06T05:27:05.419Z,5.47
2018-03-06T05:27:31.524Z,5.43
2018-03-06T05:27:57.624Z,5.35
2018-03-06T05:28:23.724Z,5.38
2018-03-06T05:28:49.823Z,5.38
2018-03-06T05:29:15.941Z,5.32
2018-03-06T05:29:42.048Z,5.28
2018-03-06T05:30:08.139Z,5.28
2018-03-06T05:30:34.240Z,5.38
2018-03-06T05:31:00.340Z,5.35
2018-03-06T05:31:26.444Z,5.39
2018-03-06T05:31:52.539Z,5.48
2018-03-06T05:32:18.642Z,5.53
2018-03-06T05:32:44.743Z,5.56
2018-03-06T05:33:10.849Z,5.56
2018-03-06T05:33:36.940Z,5.59
2018-03-06T05:34:03.072Z,5.59
2018-03-06T05:34:29.173Z,5.64
2018-03-06T05:34:55.273Z,5.62
2018-03-06T05:35:21.373Z,5.62
2018-03-06T05:35:47.472Z,5.62
2018-03-06T05:36:13.595Z,5.72
2018-03-06T05:36:39.704Z,5.68
2018-03-06T05:37:05.801Z,5.69
2018-03-06T05:37:31.902Z,5.66
2018-03-06T05:37:58.001Z,5.64
2018-03-06T05:38:24.104Z,5.62
2018-03-06T05:38:50.224Z,5.66
2018-03-06T05:39:16.338Z,5.68
2018-03-06T05:39:42.434Z,5.66
2018-03-06T05:40:08.534Z,5.65
2018-03-06T05:40:34.637Z,5.79
2018-03-06T05:41:00.734Z,5.65
2018-03-06T05:41:26.836Z,5.76
2018-03-06T05:41:52.936Z,5.76
2018-03-06T05:42:19.035Z,5.79
2018-03-06T05:42:45.124Z,5.76
2018-03-06T05:43:11.242Z,5.79
2018-03-06T05:43:37.348Z,5.69
2018-03-06T05:44:03.445Z,5.79
2018-03-06T05:44:29.543Z,5.69
2018-03-06T05:44:55.659Z,5.64
2018-03-06T05:45:21.761Z,5.68
2018-03-06T05:45:47.856Z,5.68
2018-03-06T05:46:13.958Z,5.66
2018-03-06T05:46:40.073Z,5.59
2018-03-06T05:47:06.198Z,5.38
2018-03-06T05:47:32.303Z,5.43
2018-03-06T05:47:58.399Z,5.47
2018-03-06T05:48:24.503Z,5.43
2018-03-06T05:48:50.615Z,5.43